sensor_id;sensor_type;location;lat;lon;timestamp;pressure;altitude;pressure_sealevel;temperature;humidity
57376;BME280;44805;45.048;5.062;2023-05-10T00:02:09;99704.72;;;13.97;100.00
57376;BME280;44805;45.048;5.062;2023-05-10T00:04:35;99707.41;;;13.88;100.00
57376;BME280;44805;45.048;5.062;2023-05-10T00:07:00;99680.69;;;13.67;100.00
57376;BME280;44805;45.048;5.062;2023-05-10T00:09:25;99673.56;;;13.67;100.00
57376;BME280;44805;45.048;5.062;2023-05-10T00:11:51;99700.59;;;13.94;100.00
57376;BME280;44805;45.048;5.062;2023-05-10T00:14:16;99661.50;;;13.65;100.00
57376;BME280;44805;45.048;5.062;2023-05-10T00:16:42;99619.75;;;13.44;100.00
57376;BME280;44805;45.048;5.062;2023-05-10T00:19:07;99693.84;;;13.83;100.00
57376;BME280;44805;45.048;5.062;2023-05-10T00:21:33;99675.19;;;13.77;100.00
57376;BME280;44805;45.048;5.062;2023-05-10T00:23:59;99654.06;;;13.60;100.00
57376;BME280;44805;45.048;5.062;2023-05-10T00:26:24;99723.72;;;14.08;100.00
57376;BME280;44805;45.048;5.062;2023-05-10T00:28:50;99698.59;;;13.96;100.00
57376;BME280;44805;45.048;5.062;2023-05-10T00:31:15;99665.81;;;13.58;100.00
57376;BME280;44805;45.048;5.062;2023-05-10T00:33:41;99687.78;;;13.75;100.00
57376;BME280;44805;45.048;5.062;2023-05-10T00:36:06;99659.69;;;13.65;100.00
57376;BME280;44805;45.048;5.062;2023-05-10T00:38:33;99712.84;;;13.95;100.00
57376;BME280;44805;45.048;5.062;2023-05-10T00:40:58;99690.72;;;13.80;100.00
57376;BME280;44805;45.048;5.062;2023-05-10T00:43:24;99684.00;;;13.61;100.00
57376;BME280;44805;45.048;5.062;2023-05-10T00:45:50;99729.91;;;13.93;100.00
57376;BME280;44805;45.048;5.062;2023-05-10T00:48:15;99693.28;;;13.57;100.00
57376;BME280;44805;45.048;5.062;2023-05-10T00:50:41;99713.72;;;13.71;100.00
57376;BME280;44805;45.048;5.062;2023-05-10T00:53:07;99720.66;;;13.80;100.00
57376;BME280;44805;45.048;5.062;2023-05-10T00:55:32;99730.44;;;13.80;100.00
57376;BME280;44805;45.048;5.062;2023-05-10T00:57:58;99711.94;;;13.72;100.00
57376;BME280;44805;45.048;5.062;2023-05-10T01:00:23;99723.16;;;13.74;100.00
57376;BME280;44805;45.048;5.062;2023-05-10T01:02:49;99746.66;;;13.77;100.00
57376;BME280;44805;45.048;5.062;2023-05-10T01:05:15;99717.22;;;13.63;100.00
57376;BME280;44805;45.048;5.062;2023-05-10T01:07:40;99736.69;;;13.79;100.00
57376;BME280;44805;45.048;5.062;2023-05-10T01:10:07;99756.06;;;13.79;100.00
57376;BME280;44805;45.048;5.062;2023-05-10T01:12:38;99750.13;;;13.77;100.00
57376;BME280;44805;45.048;5.062;2023-05-10T01:15:06;99724.84;;;13.58;100.00
57376;BME280;44805;45.048;5.062;2023-05-10T01:17:34;99758.41;;;13.74;100.00
57376;BME280;44805;45.048;5.062;2023-05-10T01:20:16;99745.78;;;13.76;100.00
57376;BME280;44805;45.048;5.062;2023-05-10T01:23:36;99757.88;;;13.71;100.00
57376;BME280;44805;45.048;5.062;2023-05-10T01:26:13;99754.25;;;13.63;100.00
57376;BME280;44805;45.048;5.062;2023-05-10T01:34:28;99721.00;;;13.77;100.00
57376;BME280;44805;45.048;5.062;2023-05-10T01:37:06;99719.88;;;13.72;100.00
57376;BME280;44805;45.048;5.062;2023-05-10T01:39:44;99714.91;;;13.60;100.00
57376;BME280;44805;45.048;5.062;2023-05-10T01:42:16;99744.31;;;13.74;100.00
57376;BME280;44805;45.048;5.062;2023-05-10T01:44:49;99759.56;;;13.72;100.00
57376;BME280;44805;45.048;5.062;2023-05-10T01:49:55;99766.19;;;13.59;100.00
57376;BME280;44805;45.048;5.062;2023-05-10T01:52:38;99763.88;;;13.40;100.00
57376;BME280;44805;45.048;5.062;2023-05-10T01:55:08;99762.88;;;13.57;100.00
57376;BME280;44805;45.048;5.062;2023-05-10T01:57:35;99764.22;;;13.61;100.00
57376;BME280;44805;45.048;5.062;2023-05-10T02:00:03;99761.22;;;13.64;100.00
57376;BME280;44805;45.048;5.062;2023-05-10T02:02:32;99727.69;;;13.49;100.00
57376;BME280;44805;45.048;5.062;2023-05-10T02:04:59;99730.44;;;13.63;100.00
57376;BME280;44805;45.048;5.062;2023-05-10T02:07:26;99731.44;;;13.71;100.00
57376;BME280;44805;45.048;5.062;2023-05-10T02:09:54;99740.06;;;13.56;100.00
57376;BME280;44805;45.048;5.062;2023-05-10T02:12:22;99758.25;;;13.51;100.00
57376;BME280;44805;45.048;5.062;2023-05-10T02:14:50;99726.53;;;13.27;100.00
57376;BME280;44805;45.048;5.062;2023-05-10T02:17:17;99726.03;;;13.31;100.00
57376;BME280;44805;45.048;5.062;2023-05-10T02:19:44;99752.47;;;13.39;100.00
57376;BME280;44805;45.048;5.062;2023-05-10T02:22:11;99769.50;;;13.45;100.00
57376;BME280;44805;45.048;5.062;2023-05-10T02:24:38;99746.88;;;13.34;100.00
57376;BME280;44805;45.048;5.062;2023-05-10T02:27:06;99767.50;;;13.47;100.00
57376;BME280;44805;45.048;5.062;2023-05-10T02:29:33;99746.84;;;13.51;100.00
57376;BME280;44805;45.048;5.062;2023-05-10T02:31:59;99754.28;;;13.55;100.00
57376;BME280;44805;45.048;5.062;2023-05-10T02:34:26;99733.63;;;13.42;100.00
57376;BME280;44805;45.048;5.062;2023-05-10T02:36:53;99717.25;;;13.22;100.00
57376;BME280;44805;45.048;5.062;2023-05-10T02:39:20;99702.75;;;13.27;100.00
57376;BME280;44805;45.048;5.062;2023-05-10T02:41:48;99713.31;;;13.27;100.00
57376;BME280;44805;45.048;5.062;2023-05-10T02:44:15;99700.72;;;13.12;100.00
57376;BME280;44805;45.048;5.062;2023-05-10T02:46:42;99712.31;;;13.28;100.00
57376;BME280;44805;45.048;5.062;2023-05-10T02:49:08;99713.97;;;13.29;100.00
57376;BME280;44805;45.048;5.062;2023-05-10T02:51:35;99741.56;;;13.34;100.00
57376;BME280;44805;45.048;5.062;2023-05-10T02:54:07;99712.47;;;13.18;100.00
57376;BME280;44805;45.048;5.062;2023-05-10T02:56:35;99736.09;;;13.52;100.00
57376;BME280;44805;45.048;5.062;2023-05-10T02:59:01;99720.75;;;13.39;100.00
57376;BME280;44805;45.048;5.062;2023-05-10T03:01:27;99671.31;;;13.07;100.00
57376;BME280;44805;45.048;5.062;2023-05-10T03:03:52;99694.44;;;13.21;100.00
57376;BME280;44805;45.048;5.062;2023-05-10T03:06:18;99657.13;;;13.00;100.00
57376;BME280;44805;45.048;5.062;2023-05-10T03:08:44;99712.31;;;13.28;100.00
57376;BME280;44805;45.048;5.062;2023-05-10T03:16:45;99733.47;;;13.36;100.00
57376;BME280;44805;45.048;5.062;2023-05-10T03:19:51;99687.84;;;13.17;100.00
57376;BME280;44805;45.048;5.062;2023-05-10T03:22:24;99717.94;;;13.33;100.00
57376;BME280;44805;45.048;5.062;2023-05-10T03:24:53;99696.75;;;13.00;100.00
57376;BME280;44805;45.048;5.062;2023-05-10T03:27:22;99740.56;;;13.19;100.00
57376;BME280;44805;45.048;5.062;2023-05-10T03:29:49;99735.41;;;13.17;100.00
57376;BME280;44805;45.048;5.062;2023-05-10T03:32:16;99693.47;;;12.98;100.00
57376;BME280;44805;45.048;5.062;2023-05-10T03:34:44;99711.47;;;13.19;100.00
57376;BME280;44805;45.048;5.062;2023-05-10T03:37:10;99738.59;;;13.37;100.00
57376;BME280;44805;45.048;5.062;2023-05-10T03:39:35;99727.81;;;13.22;100.00
57376;BME280;44805;45.048;5.062;2023-05-10T03:42:01;99748.03;;;13.32;100.00
57376;BME280;44805;45.048;5.062;2023-05-10T03:44:26;99735.94;;;13.21;100.00
57376;BME280;44805;45.048;5.062;2023-05-10T03:46:51;99724.84;;;13.17;100.00
57376;BME280;44805;45.048;5.062;2023-05-10T03:49:17;99738.09;;;13.25;100.00
57376;BME280;44805;45.048;5.062;2023-05-10T03:51:42;99706.16;;;13.02;100.00
57376;BME280;44805;45.048;5.062;2023-05-10T03:54:08;99736.75;;;13.21;100.00
57376;BME280;44805;45.048;5.062;2023-05-10T03:56:33;99733.59;;;13.10;100.00
57376;BME280;44805;45.048;5.062;2023-05-10T03:58:58;99745.34;;;13.23;100.00
57376;BME280;44805;45.048;5.062;2023-05-10T04:01:24;99674.94;;;12.90;100.00
57376;BME280;44805;45.048;5.062;2023-05-10T04:03:49;99737.09;;;13.18;100.00
57376;BME280;44805;45.048;5.062;2023-05-10T04:06:15;99699.41;;;12.84;100.00
57376;BME280;44805;45.048;5.062;2023-05-10T04:08:40;99731.78;;;13.02;100.00
57376;BME280;44805;45.048;5.062;2023-05-10T04:11:10;99727.97;;;12.96;100.00
57376;BME280;44805;45.048;5.062;2023-05-10T04:13:36;99731.28;;;12.98;100.00
57376;BME280;44805;45.048;5.062;2023-05-10T04:16:01;99707.47;;;12.66;100.00
57376;BME280;44805;45.048;5.062;2023-05-10T04:18:27;99750.28;;;12.94;100.00
57376;BME280;44805;45.048;5.062;2023-05-10T04:20:53;99679.84;;;12.44;100.00
57376;BME280;44805;45.048;5.062;2023-05-10T04:23:18;99740.66;;;12.68;100.00
57376;BME280;44805;45.048;5.062;2023-05-10T04:25:43;99712.28;;;12.70;100.00
57376;BME280;44805;45.048;5.062;2023-05-10T04:28:09;99758.19;;;12.86;100.00
57376;BME280;44805;45.048;5.062;2023-05-10T04:30:34;99735.19;;;12.62;100.00
57376;BME280;44805;45.048;5.062;2023-05-10T04:33:00;99716.34;;;12.40;100.00
57376;BME280;44805;45.048;5.062;2023-05-10T04:35:27;99765.44;;;12.67;100.00
57376;BME280;44805;45.048;5.062;2023-05-10T04:37:52;99695.53;;;12.29;100.00
57376;BME280;44805;45.048;5.062;2023-05-10T04:40:18;99772.03;;;12.71;100.00
57376;BME280;44805;45.048;5.062;2023-05-10T04:42:43;99773.66;;;12.64;100.00
57376;BME280;44805;45.048;5.062;2023-05-10T04:45:09;99756.97;;;12.55;100.00
57376;BME280;44805;45.048;5.062;2023-05-10T04:47:35;99701.91;;;12.18;100.00
57376;BME280;44805;45.048;5.062;2023-05-10T04:50:02;99756.97;;;12.55;100.00
57376;BME280;44805;45.048;5.062;2023-05-10T04:52:28;99778.66;;;12.67;100.00
57376;BME280;44805;45.048;5.062;2023-05-10T04:54:53;99718.88;;;12.15;100.00
57376;BME280;44805;45.048;5.062;2023-05-10T04:57:18;99778.94;;;12.64;100.00
57376;BME280;44805;45.048;5.062;2023-05-10T04:59:44;99731.97;;;12.33;100.00
57376;BME280;44805;45.048;5.062;2023-05-10T05:02:09;99771.31;;;12.53;100.00
57376;BME280;44805;45.048;5.062;2023-05-10T05:07:56;99768.13;;;12.33;100.00
57376;BME280;44805;45.048;5.062;2023-05-10T05:10:22;99775.19;;;12.24;100.00
57376;BME280;44805;45.048;5.062;2023-05-10T05:12:47;99783.47;;;12.29;100.00
57376;BME280;44805;45.048;5.062;2023-05-10T05:15:12;99800.13;;;12.30;100.00
57376;BME280;44805;45.048;5.062;2023-05-10T05:17:38;99811.78;;;12.19;100.00
57376;BME280;44805;45.048;5.062;2023-05-10T05:20:04;99797.69;;;12.10;100.00
57376;BME280;44805;45.048;5.062;2023-05-10T05:22:29;99800.63;;;11.99;100.00
57376;BME280;44805;45.048;5.062;2023-05-10T05:24:55;99752.94;;;11.74;99.78
57376;BME280;44805;45.048;5.062;2023-05-10T05:27:21;99751.19;;;11.83;100.00
57376;BME280;44805;45.048;5.062;2023-05-10T05:29:50;99817.72;;;12.21;100.00
57376;BME280;44805;45.048;5.062;2023-05-10T05:32:16;99778.00;;;11.97;100.00
57376;BME280;44805;45.048;5.062;2023-05-10T05:38:16;99812.47;;;11.95;100.00
57376;BME280;44805;45.048;5.062;2023-05-10T05:40:42;99820.31;;;12.13;100.00
57376;BME280;44805;45.048;5.062;2023-05-10T05:43:08;99806.97;;;12.14;100.00
57376;BME280;44805;45.048;5.062;2023-05-10T05:45:33;99800.22;;;12.20;100.00
57376;BME280;44805;45.048;5.062;2023-05-10T05:47:59;99795.84;;;12.29;98.64
57376;BME280;44805;45.048;5.062;2023-05-10T05:50:30;99801.66;;;12.41;100.00
57376;BME280;44805;45.048;5.062;2023-05-10T05:52:56;99817.63;;;12.73;100.00
57376;BME280;44805;45.048;5.062;2023-05-10T05:55:22;99775.94;;;12.51;100.00
57376;BME280;44805;45.048;5.062;2023-05-10T05:57:49;99757.78;;;12.56;100.00
57376;BME280;44805;45.048;5.062;2023-05-10T06:00:14;99777.31;;;12.71;96.68
57376;BME280;44805;45.048;5.062;2023-05-10T06:02:40;99799.50;;;12.95;93.61
57376;BME280;44805;45.048;5.062;2023-05-10T06:08:21;99794.88;;;12.97;86.99
57376;BME280;44805;45.048;5.062;2023-05-10T06:10:46;99787.94;;;12.88;86.65
57376;BME280;44805;45.048;5.062;2023-05-10T06:13:12;99797.84;;;12.94;85.58
57376;BME280;44805;45.048;5.062;2023-05-10T06:15:38;99790.84;;;12.68;86.77
57376;BME280;44805;45.048;5.062;2023-05-10T06:18:03;99809.16;;;12.62;84.17
57376;BME280;44805;45.048;5.062;2023-05-10T06:20:29;99857.91;;;12.75;80.91
57376;BME280;44805;45.048;5.062;2023-05-10T06:22:56;99821.16;;;12.48;79.61
57376;BME280;44805;45.048;5.062;2023-05-10T06:25:22;99786.94;;;12.38;80.77
57376;BME280;44805;45.048;5.062;2023-05-10T06:27:49;99837.94;;;12.73;77.54
57376;BME280;44805;45.048;5.062;2023-05-10T06:30:14;99777.72;;;12.42;78.97
57376;BME280;44805;45.048;5.062;2023-05-10T06:32:41;99815.13;;;12.72;78.19
57376;BME280;44805;45.048;5.062;2023-05-10T06:35:40;99861.38;;;13.27;82.35
57376;BME280;44805;45.048;5.062;2023-05-10T06:38:06;99851.47;;;13.53;77.83
57376;BME280;44805;45.048;5.062;2023-05-10T06:40:31;99854.63;;;13.65;75.74
57376;BME280;44805;45.048;5.062;2023-05-10T06:42:57;99859.44;;;13.61;73.41
57376;BME280;44805;45.048;5.062;2023-05-10T06:45:23;99836.75;;;13.51;74.20
57376;BME280;44805;45.048;5.062;2023-05-10T06:47:48;99860.94;;;13.72;75.84
57376;BME280;44805;45.048;5.062;2023-05-10T06:53:44;99876.47;;;14.00;75.59
57376;BME280;44805;45.048;5.062;2023-05-10T06:56:10;99866.38;;;13.95;73.98
57376;BME280;44805;45.048;5.062;2023-05-10T06:58:35;99862.41;;;13.83;71.81
57376;BME280;44805;45.048;5.062;2023-05-10T07:01:05;99889.66;;;14.24;72.28
57376;BME280;44805;45.048;5.062;2023-05-10T07:03:31;99887.50;;;14.11;69.85
57376;BME280;44805;45.048;5.062;2023-05-10T07:06:04;99902.75;;;14.01;70.45
57376;BME280;44805;45.048;5.062;2023-05-10T07:08:30;99882.25;;;13.95;71.86
57376;BME280;44805;45.048;5.062;2023-05-10T07:11:03;99848.03;;;13.77;70.27
57376;BME280;44805;45.048;5.062;2023-05-10T07:13:33;99877.81;;;13.79;67.27
57376;BME280;44805;45.048;5.062;2023-05-10T07:16:00;99887.03;;;13.92;68.67
57376;BME280;44805;45.048;5.062;2023-05-10T07:18:25;99900.28;;;14.08;70.47
57376;BME280;44805;45.048;5.062;2023-05-10T07:24:08;99903.91;;;14.15;67.38
57376;BME280;44805;45.048;5.062;2023-05-10T07:26:34;99855.13;;;13.93;66.77
57376;BME280;44805;45.048;5.062;2023-05-10T07:28:59;99896.63;;;14.09;66.70
57376;BME280;44805;45.048;5.062;2023-05-10T07:31:24;99887.03;;;13.92;66.05
57376;BME280;44805;45.048;5.062;2023-05-10T07:33:50;99916.50;;;14.05;66.90
57376;BME280;44805;45.048;5.062;2023-05-10T07:36:15;99889.53;;;13.93;66.92
57376;BME280;44805;45.048;5.062;2023-05-10T07:38:41;99858.28;;;13.64;66.08
57376;BME280;44805;45.048;5.062;2023-05-10T07:41:06;99874.16;;;13.80;64.53
57376;BME280;44805;45.048;5.062;2023-05-10T07:43:32;99823.38;;;13.52;65.31
57376;BME280;44805;45.048;5.062;2023-05-10T07:45:57;99920.28;;;14.10;64.77
57376;BME280;44805;45.048;5.062;2023-05-10T07:48:24;99854.81;;;13.80;63.20
57376;BME280;44805;45.048;5.062;2023-05-10T07:50:50;99912.50;;;14.09;63.92
57376;BME280;44805;45.048;5.062;2023-05-10T07:53:15;99916.66;;;14.20;64.28
57376;BME280;44805;45.048;5.062;2023-05-10T07:55:41;99904.38;;;14.27;63.94
57376;BME280;44805;45.048;5.062;2023-05-10T07:58:07;99889.50;;;14.26;66.07
57376;BME280;44805;45.048;5.062;2023-05-10T08:00:32;99919.41;;;14.34;63.23
57376;BME280;44805;45.048;5.062;2023-05-10T08:02:58;99875.28;;;13.94;61.64
57376;BME280;44805;45.048;5.062;2023-05-10T08:05:23;99868.03;;;14.04;63.72
57376;BME280;44805;45.048;5.062;2023-05-10T08:07:48;99903.06;;;14.31;63.21
57376;BME280;44805;45.048;5.062;2023-05-10T08:10:14;99920.22;;;14.51;63.00
57376;BME280;44805;45.048;5.062;2023-05-10T08:12:39;99922.88;;;14.60;63.33
57376;BME280;44805;45.048;5.062;2023-05-10T08:15:05;99877.50;;;14.54;61.63
57376;BME280;44805;45.048;5.062;2023-05-10T08:17:31;99894.03;;;14.65;61.83
57376;BME280;44805;45.048;5.062;2023-05-10T08:19:57;99912.19;;;14.84;60.04
57376;BME280;44805;45.048;5.062;2023-05-10T08:22:23;99924.84;;;14.74;58.40
57376;BME280;44805;45.048;5.062;2023-05-10T08:24:48;99875.28;;;14.74;58.81
57376;BME280;44805;45.048;5.062;2023-05-10T08:27:13;99829.47;;;14.49;60.33
57376;BME280;44805;45.048;5.062;2023-05-10T08:29:39;99907.09;;;15.14;58.63
57376;BME280;44805;45.048;5.062;2023-05-10T08:32:04;99858.38;;;14.84;59.69
57376;BME280;44805;45.048;5.062;2023-05-10T08:34:30;99847.59;;;15.16;58.01
57376;BME280;44805;45.048;5.062;2023-05-10T08:36:56;99896.63;;;15.75;57.66
57376;BME280;44805;45.048;5.062;2023-05-10T08:39:21;99837.50;;;15.12;57.54
57376;BME280;44805;45.048;5.062;2023-05-10T08:41:51;99856.13;;;15.27;57.89
57376;BME280;44805;45.048;5.062;2023-05-10T08:44:19;99845.84;;;15.47;56.75
57376;BME280;44805;45.048;5.062;2023-05-10T08:46:46;99900.75;;;15.77;57.11
57376;BME280;44805;45.048;5.062;2023-05-10T08:49:19;99909.06;;;16.12;55.64
57376;BME280;44805;45.048;5.062;2023-05-10T08:52:03;99911.44;;;16.07;54.35
57376;BME280;44805;45.048;5.062;2023-05-10T08:54:31;99907.91;;;16.30;55.71
57376;BME280;44805;45.048;5.062;2023-05-10T08:56:57;99915.69;;;16.46;54.71
57376;BME280;44805;45.048;5.062;2023-05-10T08:59:22;99874.16;;;16.00;53.18
57376;BME280;44805;45.048;5.062;2023-05-10T09:01:49;99902.78;;;16.58;53.38
57376;BME280;44805;45.048;5.062;2023-05-10T09:04:16;99918.09;;;16.70;52.75
57376;BME280;44805;45.048;5.062;2023-05-10T09:06:41;99896.22;;;16.01;53.27
57376;BME280;44805;45.048;5.062;2023-05-10T09:09:07;99893.69;;;15.84;54.21
57376;BME280;44805;45.048;5.062;2023-05-10T09:11:32;99915.06;;;16.44;53.78
57376;BME280;44805;45.048;5.062;2023-05-10T09:13:58;99918.16;;;16.33;54.49
57376;BME280;44805;45.048;5.062;2023-05-10T09:16:23;99860.56;;;15.57;55.10
57376;BME280;44805;45.048;5.062;2023-05-10T09:18:49;99906.09;;;15.69;56.69
57376;BME280;44805;45.048;5.062;2023-05-10T09:21:14;99899.81;;;15.62;57.67
57376;BME280;44805;45.048;5.062;2023-05-10T09:23:44;99908.94;;;15.36;57.99
57376;BME280;44805;45.048;5.062;2023-05-10T09:26:10;99890.72;;;15.33;57.18
57376;BME280;44805;45.048;5.062;2023-05-10T09:28:59;99922.50;;;15.41;57.73
57376;BME280;44805;45.048;5.062;2023-05-10T09:31:43;99885.34;;;15.41;57.70
57376;BME280;44805;45.048;5.062;2023-05-10T09:34:09;99898.09;;;15.46;57.18
57376;BME280;44805;45.048;5.062;2023-05-10T09:36:35;99913.31;;;15.29;58.00
57376;BME280;44805;45.048;5.062;2023-05-10T09:39:00;99907.59;;;15.40;56.51
57376;BME280;44805;45.048;5.062;2023-05-10T09:41:26;99899.81;;;15.62;59.03
57376;BME280;44805;45.048;5.062;2023-05-10T09:43:56;99931.03;;;15.60;55.79
57376;BME280;44805;45.048;5.062;2023-05-10T09:46:22;99921.25;;;15.60;55.73
57376;BME280;44805;45.048;5.062;2023-05-10T09:48:48;99884.53;;;15.41;55.69
57376;BME280;44805;45.048;5.062;2023-05-10T09:51:20;99869.44;;;15.64;56.33
57376;BME280;44805;45.048;5.062;2023-05-10T09:53:46;99922.91;;;15.84;55.51
57376;BME280;44805;45.048;5.062;2023-05-10T09:56:12;99897.97;;;15.71;55.58
57376;BME280;44805;45.048;5.062;2023-05-10T09:58:37;99915.09;;;16.06;55.94
57376;BME280;44805;45.048;5.062;2023-05-10T10:01:03;99888.53;;;16.06;54.23
57376;BME280;44805;45.048;5.062;2023-05-10T10:03:29;99888.94;;;16.33;52.96
57376;BME280;44805;45.048;5.062;2023-05-10T10:05:55;99861.81;;;16.52;53.14
57376;BME280;44805;45.048;5.062;2023-05-10T10:08:21;99914.44;;;17.01;53.28
57376;BME280;44805;45.048;5.062;2023-05-10T10:10:47;99865.38;;;16.30;51.76
57376;BME280;44805;45.048;5.062;2023-05-10T10:13:13;99916.09;;;16.87;51.33
57376;BME280;44805;45.048;5.062;2023-05-10T10:15:39;99913.50;;;16.94;50.73
57376;BME280;44805;45.048;5.062;2023-05-10T10:18:05;99906.34;;;17.09;50.82
57376;BME280;44805;45.048;5.062;2023-05-10T10:20:30;99882.06;;;16.68;51.02
57376;BME280;44805;45.048;5.062;2023-05-10T10:22:56;99917.69;;;16.82;51.50
57376;BME280;44805;45.048;5.062;2023-05-10T10:25:22;99907.09;;;16.74;51.37
57376;BME280;44805;45.048;5.062;2023-05-10T10:30:29;99883.91;;;16.67;51.25
57376;BME280;44805;45.048;5.062;2023-05-10T10:35:31;99857.72;;;16.79;51.93
57376;BME280;44805;45.048;5.062;2023-05-10T10:37:58;99866.53;;;17.01;52.22
57376;BME280;44805;45.048;5.062;2023-05-10T10:40:27;99880.16;;;16.77;50.47
57376;BME280;44805;45.048;5.062;2023-05-10T10:42:54;99902.88;;;16.64;52.17
57376;BME280;44805;45.048;5.062;2023-05-10T10:45:21;99859.78;;;16.84;51.17
57376;BME280;44805;45.048;5.062;2023-05-10T10:47:47;99856.66;;;16.65;51.71
57376;BME280;44805;45.048;5.062;2023-05-10T10:50:13;99903.88;;;16.63;51.90
57376;BME280;44805;45.048;5.062;2023-05-10T10:52:40;99864.59;;;16.44;51.98
57376;BME280;44805;45.048;5.062;2023-05-10T10:55:10;99903.81;;;16.71;52.71
57376;BME280;44805;45.048;5.062;2023-05-10T10:57:52;99899.56;;;16.33;52.44
57376;BME280;44805;45.048;5.062;2023-05-10T11:05:47;99885.56;;;16.83;52.68
57376;BME280;44805;45.048;5.062;2023-05-10T11:08:26;99877.19;;;17.01;50.31
57376;BME280;44805;45.048;5.062;2023-05-10T11:13:43;99869.59;;;16.68;48.18
57376;BME280;44805;45.048;5.062;2023-05-10T11:16:14;99860.41;;;16.71;48.88
57376;BME280;44805;45.048;5.062;2023-05-10T11:18:40;99882.13;;;17.04;49.31
57376;BME280;44805;45.048;5.062;2023-05-10T11:21:08;99834.69;;;16.71;49.49
57376;BME280;44805;45.048;5.062;2023-05-10T11:26:08;99851.34;;;16.95;50.33
57376;BME280;44805;45.048;5.062;2023-05-10T11:28:40;99837.16;;;16.88;51.12
57376;BME280;44805;45.048;5.062;2023-05-10T11:31:06;99861.75;;;17.11;51.35
57376;BME280;44805;45.048;5.062;2023-05-10T11:33:49;99875.41;;;16.87;50.64
57376;BME280;44805;45.048;5.062;2023-05-10T11:36:16;99874.63;;;16.93;49.53
57376;BME280;44805;45.048;5.062;2023-05-10T11:38:43;99842.81;;;17.00;49.97
57376;BME280;44805;45.048;5.062;2023-05-10T11:41:09;99798.69;;;16.39;49.28
57376;BME280;44805;45.048;5.062;2023-05-10T11:43:36;99831.84;;;16.58;49.09
57376;BME280;44805;45.048;5.062;2023-05-10T11:46:04;99880.88;;;16.70;49.68
57376;BME280;44805;45.048;5.062;2023-05-10T11:48:31;99831.75;;;16.07;50.41
57376;BME280;44805;45.048;5.062;2023-05-10T11:50:56;99884.53;;;16.40;51.37
57376;BME280;44805;45.048;5.062;2023-05-10T11:53:25;99877.28;;;16.48;50.86
57376;BME280;44805;45.048;5.062;2023-05-10T11:55:50;99865.03;;;16.47;51.34
57376;BME280;44805;45.048;5.062;2023-05-10T11:58:18;99848.16;;;16.11;50.75
57376;BME280;44805;45.048;5.062;2023-05-10T12:00:44;99801.97;;;15.97;50.23
57376;BME280;44805;45.048;5.062;2023-05-10T12:03:10;99893.63;;;16.45;50.42
57376;BME280;44805;45.048;5.062;2023-05-10T12:05:36;99857.88;;;16.48;50.56
57376;BME280;44805;45.048;5.062;2023-05-10T12:08:15;99827.00;;;16.47;51.35
57376;BME280;44805;45.048;5.062;2023-05-10T12:10:41;99850.16;;;16.68;49.60
57376;BME280;44805;45.048;5.062;2023-05-10T12:13:14;99852.50;;;17.07;50.08
57376;BME280;44805;45.048;5.062;2023-05-10T12:15:40;99858.31;;;16.96;50.16
57376;BME280;44805;45.048;5.062;2023-05-10T12:18:08;99791.53;;;16.55;49.68
57376;BME280;44805;45.048;5.062;2023-05-10T12:20:41;99818.69;;;16.86;49.02
57376;BME280;44805;45.048;5.062;2023-05-10T12:23:09;99880.94;;;17.43;48.41
57376;BME280;44805;45.048;5.062;2023-05-10T12:25:36;99879.00;;;17.16;48.51
57376;BME280;44805;45.048;5.062;2023-05-10T12:28:04;99817.06;;;16.85;48.62
57376;BME280;44805;45.048;5.062;2023-05-10T12:30:34;99839.28;;;16.78;49.50
57376;BME280;44805;45.048;5.062;2023-05-10T12:33:11;99828.78;;;16.91;48.97
57376;BME280;44805;45.048;5.062;2023-05-10T12:35:50;99861.75;;;17.11;48.21
57376;BME280;44805;45.048;5.062;2023-05-10T12:38:24;99859.69;;;17.28;49.15
57376;BME280;44805;45.048;5.062;2023-05-10T12:40:50;99787.78;;;16.49;47.71
57376;BME280;44805;45.048;5.062;2023-05-10T12:43:15;99800.94;;;16.87;47.82
57376;BME280;44805;45.048;5.062;2023-05-10T12:45:41;99830.91;;;16.81;48.74
57376;BME280;44805;45.048;5.062;2023-05-10T12:48:06;99858.69;;;16.93;48.96
57376;BME280;44805;45.048;5.062;2023-05-10T12:50:31;99807.19;;;16.64;49.39
57376;BME280;44805;45.048;5.062;2023-05-10T12:52:57;99862.25;;;17.22;49.45
57376;BME280;44805;45.048;5.062;2023-05-10T12:55:22;99843.47;;;17.23;48.93
57376;BME280;44805;45.048;5.062;2023-05-10T12:57:48;99802.72;;;17.01;49.44
57376;BME280;44805;45.048;5.062;2023-05-10T13:00:13;99766.63;;;16.77;49.35
57376;BME280;44805;45.048;5.062;2023-05-10T13:02:39;99777.09;;;16.79;48.58
57376;BME280;44805;45.048;5.062;2023-05-10T13:05:05;99843.91;;;17.27;48.00
57376;BME280;44805;45.048;5.062;2023-05-10T13:07:30;99837.81;;;17.11;48.22
57376;BME280;44805;45.048;5.062;2023-05-10T13:09:56;99818.78;;;16.93;48.10
57376;BME280;44805;45.048;5.062;2023-05-10T13:12:21;99807.38;;;16.78;48.15
57376;BME280;44805;45.048;5.062;2023-05-10T13:14:47;99813.59;;;16.85;47.97
57376;BME280;44805;45.048;5.062;2023-05-10T13:17:12;99825.03;;;17.22;47.45
57376;BME280;44805;45.048;5.062;2023-05-10T13:19:37;99832.06;;;17.29;48.35
57376;BME280;44805;45.048;5.062;2023-05-10T13:22:03;99763.81;;;17.43;48.10
57376;BME280;44805;45.048;5.062;2023-05-10T13:24:28;99816.34;;;17.56;49.03
57376;BME280;44805;45.048;5.062;2023-05-10T13:26:54;99786.41;;;17.54;48.97
57376;BME280;44805;45.048;5.062;2023-05-10T13:29:19;99778.50;;;18.23;47.59
57376;BME280;44805;45.048;5.062;2023-05-10T13:31:46;99805.91;;;17.83;45.97
57376;BME280;44805;45.048;5.062;2023-05-10T13:34:11;99800.13;;;17.79;46.95
57376;BME280;44805;45.048;5.062;2023-05-10T13:36:37;99834.00;;;17.85;47.30
57376;BME280;44805;45.048;5.062;2023-05-10T13:39:02;99809.81;;;17.16;46.48
57376;BME280;44805;45.048;5.062;2023-05-10T13:41:30;99804.56;;;17.01;46.82
57376;BME280;44805;45.048;5.062;2023-05-10T13:43:55;99781.94;;;16.75;47.12